Providence, Pennsylvania
Current Conditions -  °F | °C
As of 5:53 AM on Thursday 18 Dec 2014 (Local Time) from KLNS Reporting Station
Broken Clouds Broken Clouds  
Wind Chill: 24°   Ceiling: 4300
Heat Index: 33°   Visibility: 10mi
Dew Point: 18°   Wind: 12mph
Humidity: 54%   Direction: 310°NW
Pressure: 30.05"   Gusts: 23mph
Location:  39.9111°N, 76.2285°W
Report Text: KLNS 181053Z 31010G20KT 10SM BKN043 01/M08 A3005 RMK AO2 SLP177 T00061078
Loading
Personal Weather Stations






























Interactive Weather Map New forecast layout! Learn more

10-Day Weather Forecast

Advertisements
Track Severe Weather on mobile